sensor_id;sensor_type;location;lat;lon;timestamp;temperature;humidity
17178;DHT22;8704;52.006;4.374;2023-02-28T00:01:27;1.50;99.90
17178;DHT22;8704;52.006;4.374;2023-02-28T00:03:57;1.20;99.90
17178;DHT22;8704;52.006;4.374;2023-02-28T00:06:25;1.30;99.90
17178;DHT22;8704;52.006;4.374;2023-02-28T00:08:53;1.30;99.90
17178;DHT22;8704;52.006;4.374;2023-02-28T00:11:21;1.30;99.90
17178;DHT22;8704;52.006;4.374;2023-02-28T00:13:49;2.30;99.90
17178;DHT22;8704;52.006;4.374;2023-02-28T00:16:19;1.40;99.90
17178;DHT22;8704;52.006;4.374;2023-02-28T00:18:49;1.40;99.90
17178;DHT22;8704;52.006;4.374;2023-02-28T00:21:19;1.40;99.90
17178;DHT22;8704;52.006;4.374;2023-02-28T00:23:48;1.50;99.90
17178;DHT22;8704;52.006;4.374;2023-02-28T00:26:16;1.60;99.90
17178;DHT22;8704;52.006;4.374;2023-02-28T00:28:47;1.60;99.90
17178;DHT22;8704;52.006;4.374;2023-02-28T00:31:15;1.70;99.90
17178;DHT22;8704;52.006;4.374;2023-02-28T00:33:43;1.70;99.90
17178;DHT22;8704;52.006;4.374;2023-02-28T00:36:12;1.70;99.90
17178;DHT22;8704;52.006;4.374;2023-02-28T00:38:41;1.70;99.90
17178;DHT22;8704;52.006;4.374;2023-02-28T00:41:09;1.70;99.90
17178;DHT22;8704;52.006;4.374;2023-02-28T00:43:38;1.80;99.90
17178;DHT22;8704;52.006;4.374;2023-02-28T00:46:07;1.80;99.90
17178;DHT22;8704;52.006;4.374;2023-02-28T00:48:35;1.90;99.90
17178;DHT22;8704;52.006;4.374;2023-02-28T00:51:04;1.90;99.90
17178;DHT22;8704;52.006;4.374;2023-02-28T00:53:32;1.90;99.90
17178;DHT22;8704;52.006;4.374;2023-02-28T00:56:02;1.90;99.90
17178;DHT22;8704;52.006;4.374;2023-02-28T00:58:30;2.00;99.90
17178;DHT22;8704;52.006;4.374;2023-02-28T01:00:58;2.00;99.90
17178;DHT22;8704;52.006;4.374;2023-02-28T01:03:26;1.90;99.90
17178;DHT22;8704;52.006;4.374;2023-02-28T01:05:54;2.00;99.90
17178;DHT22;8704;52.006;4.374;2023-02-28T01:08:22;2.00;99.90
17178;DHT22;8704;52.006;4.374;2023-02-28T01:10:50;2.50;99.90
17178;DHT22;8704;52.006;4.374;2023-02-28T01:13:20;2.00;99.90
17178;DHT22;8704;52.006;4.374;2023-02-28T01:15:51;2.10;99.90
17178;DHT22;8704;52.006;4.374;2023-02-28T01:18:21;2.10;99.90
17178;DHT22;8704;52.006;4.374;2023-02-28T01:20:49;2.10;99.90
17178;DHT22;8704;52.006;4.374;2023-02-28T01:23:18;2.10;99.90
17178;DHT22;8704;52.006;4.374;2023-02-28T01:25:46;2.10;99.90
17178;DHT22;8704;52.006;4.374;2023-02-28T01:28:14;2.20;99.90
17178;DHT22;8704;52.006;4.374;2023-02-28T01:30:47;2.20;99.90
17178;DHT22;8704;52.006;4.374;2023-02-28T01:33:15;2.20;99.90
17178;DHT22;8704;52.006;4.374;2023-02-28T01:35:44;2.20;99.90
17178;DHT22;8704;52.006;4.374;2023-02-28T01:38:12;2.30;99.90
17178;DHT22;8704;52.006;4.374;2023-02-28T01:40:49;3.00;99.90
17178;DHT22;8704;52.006;4.374;2023-02-28T01:43:22;2.60;99.90
17178;DHT22;8704;52.006;4.374;2023-02-28T01:45:53;2.30;99.90
17178;DHT22;8704;52.006;4.374;2023-02-28T01:48:26;2.40;99.90
17178;DHT22;8704;52.006;4.374;2023-02-28T01:50:57;3.20;99.90
17178;DHT22;8704;52.006;4.374;2023-02-28T01:53:32;2.40;99.90
17178;DHT22;8704;52.006;4.374;2023-02-28T01:56:03;2.40;99.90
17178;DHT22;8704;52.006;4.374;2023-02-28T01:58:33;2.40;99.90
17178;DHT22;8704;52.006;4.374;2023-02-28T02:01:03;2.40;99.90
17178;DHT22;8704;52.006;4.374;2023-02-28T02:03:32;2.40;99.90
17178;DHT22;8704;52.006;4.374;2023-02-28T02:06:00;2.50;99.90
17178;DHT22;8704;52.006;4.374;2023-02-28T02:08:29;2.50;99.90
17178;DHT22;8704;52.006;4.374;2023-02-28T02:11:00;2.50;99.90
17178;DHT22;8704;52.006;4.374;2023-02-28T02:13:37;2.50;99.90
17178;DHT22;8704;52.006;4.374;2023-02-28T02:16:20;2.50;99.90
17178;DHT22;8704;52.006;4.374;2023-02-28T02:18:53;2.50;99.90
17178;DHT22;8704;52.006;4.374;2023-02-28T02:21:52;2.50;99.90
17178;DHT22;8704;52.006;4.374;2023-02-28T02:30:59;2.60;99.90
17178;DHT22;8704;52.006;4.374;2023-02-28T02:36:33;2.60;99.90
17178;DHT22;8704;52.006;4.374;2023-02-28T02:39:06;2.60;99.90
17178;DHT22;8704;52.006;4.374;2023-02-28T02:41:45;2.60;99.90
17178;DHT22;8704;52.006;4.374;2023-02-28T02:44:20;2.70;99.90
17178;DHT22;8704;52.006;4.374;2023-02-28T02:46:51;3.40;99.90
17178;DHT22;8704;52.006;4.374;2023-02-28T02:49:25;2.70;99.90
17178;DHT22;8704;52.006;4.374;2023-02-28T02:51:57;2.70;99.90
17178;DHT22;8704;52.006;4.374;2023-02-28T02:54:29;2.70;99.90
17178;DHT22;8704;52.006;4.374;2023-02-28T02:57:01;2.70;99.90
17178;DHT22;8704;52.006;4.374;2023-02-28T02:59:32;2.70;99.90
17178;DHT22;8704;52.006;4.374;2023-02-28T03:02:03;2.80;99.90
17178;DHT22;8704;52.006;4.374;2023-02-28T03:04:35;2.80;99.90
17178;DHT22;8704;52.006;4.374;2023-02-28T03:07:07;2.80;99.90
17178;DHT22;8704;52.006;4.374;2023-02-28T03:09:35;2.80;99.90
17178;DHT22;8704;52.006;4.374;2023-02-28T03:12:04;2.80;99.90
17178;DHT22;8704;52.006;4.374;2023-02-28T03:14:55;2.80;99.90
17178;DHT22;8704;52.006;4.374;2023-02-28T03:17:46;2.80;99.90
17178;DHT22;8704;52.006;4.374;2023-02-28T03:20:23;2.80;99.90
17178;DHT22;8704;52.006;4.374;2023-02-28T03:23:03;2.90;99.90
17178;DHT22;8704;52.006;4.374;2023-02-28T03:25:40;2.80;99.90
17178;DHT22;8704;52.006;4.374;2023-02-28T03:28:15;2.90;99.90
17178;DHT22;8704;52.006;4.374;2023-02-28T03:30:48;2.90;1.00
17178;DHT22;8704;52.006;4.374;2023-02-28T03:33:22;2.90;1.00
17178;DHT22;8704;52.006;4.374;2023-02-28T03:35:55;2.90;1.00
17178;DHT22;8704;52.006;4.374;2023-02-28T03:38:29;2.90;1.00
17178;DHT22;8704;52.006;4.374;2023-02-28T03:41:02;2.90;1.00
17178;DHT22;8704;52.006;4.374;2023-02-28T03:43:35;3.50;99.90
17178;DHT22;8704;52.006;4.374;2023-02-28T03:46:08;3.00;99.90
17178;DHT22;8704;52.006;4.374;2023-02-28T03:48:40;3.00;99.90
17178;DHT22;8704;52.006;4.374;2023-02-28T03:51:11;3.00;99.90
17178;DHT22;8704;52.006;4.374;2023-02-28T03:53:45;3.00;99.90
17178;DHT22;8704;52.006;4.374;2023-02-28T03:56:17;3.00;99.90
17178;DHT22;8704;52.006;4.374;2023-02-28T03:58:51;3.00;1.00
17178;DHT22;8704;52.006;4.374;2023-02-28T04:01:25;3.00;1.00
17178;DHT22;8704;52.006;4.374;2023-02-28T04:03:56;3.00;1.00
17178;DHT22;8704;52.006;4.374;2023-02-28T04:06:25;3.10;1.00
17178;DHT22;8704;52.006;4.374;2023-02-28T04:08:55;3.70;1.00
17178;DHT22;8704;52.006;4.374;2023-02-28T04:11:27;3.10;1.00
17178;DHT22;8704;52.006;4.374;2023-02-28T04:13:58;3.10;1.00
17178;DHT22;8704;52.006;4.374;2023-02-28T04:16:26;3.10;1.00
17178;DHT22;8704;52.006;4.374;2023-02-28T04:19:02;3.10;1.00
17178;DHT22;8704;52.006;4.374;2023-02-28T04:21:33;3.10;1.00
17178;DHT22;8704;52.006;4.374;2023-02-28T04:24:03;3.10;1.00
17178;DHT22;8704;52.006;4.374;2023-02-28T04:26:33;3.10;1.00
17178;DHT22;8704;52.006;4.374;2023-02-28T04:29:02;3.10;1.00
17178;DHT22;8704;52.006;4.374;2023-02-28T04:31:31;3.20;1.00
17178;DHT22;8704;52.006;4.374;2023-02-28T04:34:00;3.10;1.00
17178;DHT22;8704;52.006;4.374;2023-02-28T04:36:28;3.70;1.00
17178;DHT22;8704;52.006;4.374;2023-02-28T04:38:56;3.20;1.00
17178;DHT22;8704;52.006;4.374;2023-02-28T04:41:26;3.20;1.00
17178;DHT22;8704;52.006;4.374;2023-02-28T04:43:58;3.20;1.00
17178;DHT22;8704;52.006;4.374;2023-02-28T04:46:26;3.20;1.00
17178;DHT22;8704;52.006;4.374;2023-02-28T04:48:54;3.20;1.00
17178;DHT22;8704;52.006;4.374;2023-02-28T04:51:22;3.20;1.00
17178;DHT22;8704;52.006;4.374;2023-02-28T04:53:50;3.20;1.00
17178;DHT22;8704;52.006;4.374;2023-02-28T04:56:19;3.30;1.00
17178;DHT22;8704;52.006;4.374;2023-02-28T04:58:49;3.30;1.00
17178;DHT22;8704;52.006;4.374;2023-02-28T05:01:23;3.30;1.00
17178;DHT22;8704;52.006;4.374;2023-02-28T05:03:53;3.30;1.00
17178;DHT22;8704;52.006;4.374;2023-02-28T05:06:24;3.30;1.00
17178;DHT22;8704;52.006;4.374;2023-02-28T05:08:52;3.30;1.00
17178;DHT22;8704;52.006;4.374;2023-02-28T05:11:23;3.30;1.00
17178;DHT22;8704;52.006;4.374;2023-02-28T05:13:53;3.30;1.00
17178;DHT22;8704;52.006;4.374;2023-02-28T05:16:21;3.50;1.00
17178;DHT22;8704;52.006;4.374;2023-02-28T05:18:50;3.30;1.00
17178;DHT22;8704;52.006;4.374;2023-02-28T05:21:26;3.30;1.00
17178;DHT22;8704;52.006;4.374;2023-02-28T05:23:56;3.30;1.00
17178;DHT22;8704;52.006;4.374;2023-02-28T05:26:25;3.30;1.00
17178;DHT22;8704;52.006;4.374;2023-02-28T05:28:56;3.30;1.00
17178;DHT22;8704;52.006;4.374;2023-02-28T05:31:24;4.20;1.00
17178;DHT22;8704;52.006;4.374;2023-02-28T05:33:52;3.30;1.00
17178;DHT22;8704;52.006;4.374;2023-02-28T05:36:20;3.30;1.00
17178;DHT22;8704;52.006;4.374;2023-02-28T05:38:49;3.30;99.90
17178;DHT22;8704;52.006;4.374;2023-02-28T05:41:18;3.30;99.90
17178;DHT22;8704;52.006;4.374;2023-02-28T05:43:47;3.30;99.90
17178;DHT22;8704;52.006;4.374;2023-02-28T05:46:17;3.30;99.90
17178;DHT22;8704;52.006;4.374;2023-02-28T05:48:46;3.30;99.90
17178;DHT22;8704;52.006;4.374;2023-02-28T05:51:15;3.30;99.90
17178;DHT22;8704;52.006;4.374;2023-02-28T05:53:44;3.30;99.90
17178;DHT22;8704;52.006;4.374;2023-02-28T05:56:12;3.20;99.90
17178;DHT22;8704;52.006;4.374;2023-02-28T05:58:40;3.30;99.90
17178;DHT22;8704;52.006;4.374;2023-02-28T06:01:32;3.20;99.90
17178;DHT22;8704;52.006;4.374;2023-02-28T06:04:01;4.30;99.90
17178;DHT22;8704;52.006;4.374;2023-02-28T06:06:29;3.20;99.90
17178;DHT22;8704;52.006;4.374;2023-02-28T06:08:57;3.40;99.90
17178;DHT22;8704;52.006;4.374;2023-02-28T06:11:25;3.20;99.90
17178;DHT22;8704;52.006;4.374;2023-02-28T06:13:55;3.20;99.90
17178;DHT22;8704;52.006;4.374;2023-02-28T06:16:24;3.20;99.90
17178;DHT22;8704;52.006;4.374;2023-02-28T06:18:53;3.20;99.90
17178;DHT22;8704;52.006;4.374;2023-02-28T06:21:23;3.20;99.90
17178;DHT22;8704;52.006;4.374;2023-02-28T06:23:51;3.20;99.90
17178;DHT22;8704;52.006;4.374;2023-02-28T06:26:20;3.20;97.30
17178;DHT22;8704;52.006;4.374;2023-02-28T06:28:48;3.20;90.30
17178;DHT22;8704;52.006;4.374;2023-02-28T06:31:17;3.20;79.40
17178;DHT22;8704;52.006;4.374;2023-02-28T06:33:46;3.20;65.20
17178;DHT22;8704;52.006;4.374;2023-02-28T06:36:17;3.20;69.00
17178;DHT22;8704;52.006;4.374;2023-02-28T06:38:45;3.20;53.40
17178;DHT22;8704;52.006;4.374;2023-02-28T06:41:18;3.20;60.80
17178;DHT22;8704;52.006;4.374;2023-02-28T06:43:46;3.20;57.70
17178;DHT22;8704;52.006;4.374;2023-02-28T06:46:14;3.20;53.00
17178;DHT22;8704;52.006;4.374;2023-02-28T06:48:43;3.20;86.80
17178;DHT22;8704;52.006;4.374;2023-02-28T06:51:13;3.20;79.30
17178;DHT22;8704;52.006;4.374;2023-02-28T06:53:43;3.10;68.20
17178;DHT22;8704;52.006;4.374;2023-02-28T06:56:12;3.10;77.60
17178;DHT22;8704;52.006;4.374;2023-02-28T06:58:41;3.10;67.00
17178;DHT22;8704;52.006;4.374;2023-02-28T07:01:09;3.10;76.90
17178;DHT22;8704;52.006;4.374;2023-02-28T07:03:37;3.10;58.50
17178;DHT22;8704;52.006;4.374;2023-02-28T07:06:05;3.00;49.70
17178;DHT22;8704;52.006;4.374;2023-02-28T07:08:34;3.00;55.60
17178;DHT22;8704;52.006;4.374;2023-02-28T07:11:04;2.90;42.50
17178;DHT22;8704;52.006;4.374;2023-02-28T07:13:32;2.90;35.90
17178;DHT22;8704;52.006;4.374;2023-02-28T07:16:02;2.90;30.10
17178;DHT22;8704;52.006;4.374;2023-02-28T07:18:30;3.00;47.80
17178;DHT22;8704;52.006;4.374;2023-02-28T07:21:02;2.90;12.50
17178;DHT22;8704;52.006;4.374;2023-02-28T07:23:31;2.80;1.00
17178;DHT22;8704;52.006;4.374;2023-02-28T07:25:59;2.80;1.00
17178;DHT22;8704;52.006;4.374;2023-02-28T07:28:28;2.70;1.00
17178;DHT22;8704;52.006;4.374;2023-02-28T07:30:56;2.80;1.00
17178;DHT22;8704;52.006;4.374;2023-02-28T07:33:25;2.70;1.00
17178;DHT22;8704;52.006;4.374;2023-02-28T07:36:00;2.60;1.00
17178;DHT22;8704;52.006;4.374;2023-02-28T07:38:28;2.50;1.00
17178;DHT22;8704;52.006;4.374;2023-02-28T07:40:56;2.50;10.90
17178;DHT22;8704;52.006;4.374;2023-02-28T07:43:24;2.50;58.70
17178;DHT22;8704;52.006;4.374;2023-02-28T07:45:53;2.50;98.20
17178;DHT22;8704;52.006;4.374;2023-02-28T07:48:21;2.40;99.90
17178;DHT22;8704;52.006;4.374;2023-02-28T07:50:54;2.40;99.90
17178;DHT22;8704;52.006;4.374;2023-02-28T07:53:23;2.40;99.90
17178;DHT22;8704;52.006;4.374;2023-02-28T07:55:54;3.10;99.90
17178;DHT22;8704;52.006;4.374;2023-02-28T07:58:23;2.30;99.90
17178;DHT22;8704;52.006;4.374;2023-02-28T08:00:52;2.30;99.90
17178;DHT22;8704;52.006;4.374;2023-02-28T08:03:22;3.00;99.90
17178;DHT22;8704;52.006;4.374;2023-02-28T08:05:50;2.80;99.90
17178;DHT22;8704;52.006;4.374;2023-02-28T08:08:19;2.70;99.90
17178;DHT22;8704;52.006;4.374;2023-02-28T08:10:47;2.20;99.90
17178;DHT22;8704;52.006;4.374;2023-02-28T08:13:15;2.00;99.90
17178;DHT22;8704;52.006;4.374;2023-02-28T08:15:43;2.00;99.90
17178;DHT22;8704;52.006;4.374;2023-02-28T08:18:13;2.00;99.90
17178;DHT22;8704;52.006;4.374;2023-02-28T08:20:41;2.00;99.90
17178;DHT22;8704;52.006;4.374;2023-02-28T08:23:09;2.00;99.90
17178;DHT22;8704;52.006;4.374;2023-02-28T08:25:37;2.00;99.90
17178;DHT22;8704;52.006;4.374;2023-02-28T08:28:05;1.90;99.90
17178;DHT22;8704;52.006;4.374;2023-02-28T08:30:33;1.90;99.90
17178;DHT22;8704;52.006;4.374;2023-02-28T08:33:01;1.90;99.90
17178;DHT22;8704;52.006;4.374;2023-02-28T08:35:31;2.00;99.90
17178;DHT22;8704;52.006;4.374;2023-02-28T08:37:59;2.00;99.90
17178;DHT22;8704;52.006;4.374;2023-02-28T08:40:27;1.90;99.90
17178;DHT22;8704;52.006;4.374;2023-02-28T08:42:55;2.20;99.90
17178;DHT22;8704;52.006;4.374;2023-02-28T08:45:23;1.90;99.90
17178;DHT22;8704;52.006;4.374;2023-02-28T08:47:51;1.90;99.90
17178;DHT22;8704;52.006;4.374;2023-02-28T08:50:20;1.90;99.90
17178;DHT22;8704;52.006;4.374;2023-02-28T08:52:49;1.90;99.90
17178;DHT22;8704;52.006;4.374;2023-02-28T08:55:17;1.90;99.90
17178;DHT22;8704;52.006;4.374;2023-02-28T08:57:45;2.00;99.90
17178;DHT22;8704;52.006;4.374;2023-02-28T09:00:14;2.00;99.90
17178;DHT22;8704;52.006;4.374;2023-02-28T09:02:42;2.10;99.90
17178;DHT22;8704;52.006;4.374;2023-02-28T09:05:10;2.10;99.90
17178;DHT22;8704;52.006;4.374;2023-02-28T09:07:38;2.10;99.90
17178;DHT22;8704;52.006;4.374;2023-02-28T09:10:09;2.20;99.90
17178;DHT22;8704;52.006;4.374;2023-02-28T09:12:37;2.20;99.90
17178;DHT22;8704;52.006;4.374;2023-02-28T09:15:06;2.20;99.90
17178;DHT22;8704;52.006;4.374;2023-02-28T09:17:35;2.20;99.90
17178;DHT22;8704;52.006;4.374;2023-02-28T09:20:03;2.20;99.90
17178;DHT22;8704;52.006;4.374;2023-02-28T09:22:32;2.20;99.90
17178;DHT22;8704;52.006;4.374;2023-02-28T09:25:00;2.30;99.90
17178;DHT22;8704;52.006;4.374;2023-02-28T09:27:29;2.30;99.90
17178;DHT22;8704;52.006;4.374;2023-02-28T09:29:57;2.30;99.90
17178;DHT22;8704;52.006;4.374;2023-02-28T09:32:25;2.40;99.90
17178;DHT22;8704;52.006;4.374;2023-02-28T09:34:53;2.40;1.00
17178;DHT22;8704;52.006;4.374;2023-02-28T09:37:21;2.50;1.00
17178;DHT22;8704;52.006;4.374;2023-02-28T09:39:50;2.60;1.00
17178;DHT22;8704;52.006;4.374;2023-02-28T09:42:21;2.70;1.00
17178;DHT22;8704;52.006;4.374;2023-02-28T09:44:52;2.70;1.00
17178;DHT22;8704;52.006;4.374;2023-02-28T09:47:27;2.70;1.00
17178;DHT22;8704;52.006;4.374;2023-02-28T09:49:59;2.80;1.00
17178;DHT22;8704;52.006;4.374;2023-02-28T09:52:32;2.80;1.00
17178;DHT22;8704;52.006;4.374;2023-02-28T09:55:04;2.80;1.00
17178;DHT22;8704;52.006;4.374;2023-02-28T09:57:45;2.80;99.90
17178;DHT22;8704;52.006;4.374;2023-02-28T10:00:18;2.90;99.90
17178;DHT22;8704;52.006;4.374;2023-02-28T10:02:54;2.90;99.90
17178;DHT22;8704;52.006;4.374;2023-02-28T10:05:27;3.80;99.90
17178;DHT22;8704;52.006;4.374;2023-02-28T10:08:02;3.20;99.90
17178;DHT22;8704;52.006;4.374;2023-02-28T10:10:36;3.20;1.00
17178;DHT22;8704;52.006;4.374;2023-02-28T10:13:13;3.20;99.90
17178;DHT22;8704;52.006;4.374;2023-02-28T10:15:45;3.20;99.90
17178;DHT22;8704;52.006;4.374;2023-02-28T10:18:19;3.30;99.90
17178;DHT22;8704;52.006;4.374;2023-02-28T10:20:49;3.30;99.90
17178;DHT22;8704;52.006;4.374;2023-02-28T10:23:21;3.30;99.90
17178;DHT22;8704;52.006;4.374;2023-02-28T10:25:55;3.70;99.90
17178;DHT22;8704;52.006;4.374;2023-02-28T10:28:26;3.40;99.90
17178;DHT22;8704;52.006;4.374;2023-02-28T10:30:58;3.40;99.90
17178;DHT22;8704;52.006;4.374;2023-02-28T10:33:29;3.50;99.90
17178;DHT22;8704;52.006;4.374;2023-02-28T10:35:58;3.60;99.90
17178;DHT22;8704;52.006;4.374;2023-02-28T10:38:31;3.50;99.90
17178;DHT22;8704;52.006;4.374;2023-02-28T10:41:05;3.60;99.90
17178;DHT22;8704;52.006;4.374;2023-02-28T10:43:33;3.40;31.60
17178;DHT22;8704;52.006;4.374;2023-02-28T10:46:05;4.60;8.30
17178;DHT22;8704;52.006;4.374;2023-02-28T10:48:40;3.70;1.00
17178;DHT22;8704;52.006;4.374;2023-02-28T10:51:10;4.00;1.00
17178;DHT22;8704;52.006;4.374;2023-02-28T10:53:46;3.80;1.00
17178;DHT22;8704;52.006;4.374;2023-02-28T10:56:27;3.80;1.00
17178;DHT22;8704;52.006;4.374;2023-02-28T10:58:59;3.90;1.00
17178;DHT22;8704;52.006;4.374;2023-02-28T11:01:37;3.90;1.00
17178;DHT22;8704;52.006;4.374;2023-02-28T11:04:17;3.90;1.00
17178;DHT22;8704;52.006;4.374;2023-02-28T11:06:46;3.90;1.00
17178;DHT22;8704;52.006;4.374;2023-02-28T11:09:20;3.90;1.00
17178;DHT22;8704;52.006;4.374;2023-02-28T11:11:50;4.00;1.00
17178;DHT22;8704;52.006;4.374;2023-02-28T11:14:21;4.00;1.00
17178;DHT22;8704;52.006;4.374;2023-02-28T11:16:52;4.20;1.00
17178;DHT22;8704;52.006;4.374;2023-02-28T11:19:23;4.20;1.00
17178;DHT22;8704;52.006;4.374;2023-02-28T11:21:55;4.40;1.00
17178;DHT22;8704;52.006;4.374;2023-02-28T11:24:27;4.50;1.00
17178;DHT22;8704;52.006;4.374;2023-02-28T11:26:56;4.60;1.00
17178;DHT22;8704;52.006;4.374;2023-02-28T11:29:26;4.60;1.00
17178;DHT22;8704;52.006;4.374;2023-02-28T11:32:12;4.80;1.00
17178;DHT22;8704;52.006;4.374;2023-02-28T11:34:42;4.50;1.00
17178;DHT22;8704;52.006;4.374;2023-02-28T11:37:13;4.70;1.00
17178;DHT22;8704;52.006;4.374;2023-02-28T11:39:42;4.60;1.00
17178;DHT22;8704;52.006;4.374;2023-02-28T11:42:21;4.80;1.00
17178;DHT22;8704;52.006;4.374;2023-02-28T11:45:02;4.80;1.00
17178;DHT22;8704;52.006;4.374;2023-02-28T11:47:44;4.90;1.00
17178;DHT22;8704;52.006;4.374;2023-02-28T11:50:25;5.00;1.00
17178;DHT22;8704;52.006;4.374;2023-02-28T11:52:56;5.00;1.00
17178;DHT22;8704;52.006;4.374;2023-02-28T11:55:27;5.10;1.00
17178;DHT22;8704;52.006;4.374;2023-02-28T11:58:15;5.10;1.00
17178;DHT22;8704;52.006;4.374;2023-02-28T12:01:04;5.30;1.00
17178;DHT22;8704;52.006;4.374;2023-02-28T12:03:44;5.40;1.00
17178;DHT22;8704;52.006;4.374;2023-02-28T12:06:22;5.50;1.00
17178;DHT22;8704;52.006;4.374;2023-02-28T12:09:05;5.50;1.00
17178;DHT22;8704;52.006;4.374;2023-02-28T12:11:47;5.50;1.00
17178;DHT22;8704;52.006;4.374;2023-02-28T12:14:39;5.50;1.00
17178;DHT22;8704;52.006;4.374;2023-02-28T12:17:30;5.50;1.00
17178;DHT22;8704;52.006;4.374;2023-02-28T12:20:11;5.60;1.00
17178;DHT22;8704;52.006;4.374;2023-02-28T12:22:49;5.80;1.00
17178;DHT22;8704;52.006;4.374;2023-02-28T12:28:29;6.10;1.00
17178;DHT22;8704;52.006;4.374;2023-02-28T12:31:01;6.40;1.00
17178;DHT22;8704;52.006;4.374;2023-02-28T12:33:34;6.50;1.00
17178;DHT22;8704;52.006;4.374;2023-02-28T12:36:07;6.60;1.00
17178;DHT22;8704;52.006;4.374;2023-02-28T12:38:43;6.60;1.00
17178;DHT22;8704;52.006;4.374;2023-02-28T12:41:14;6.70;1.00
17178;DHT22;8704;52.006;4.374;2023-02-28T12:43:46;6.90;1.00
17178;DHT22;8704;52.006;4.374;2023-02-28T12:46:19;7.20;1.00
17178;DHT22;8704;52.006;4.374;2023-02-28T12:48:52;7.00;1.00
17178;DHT22;8704;52.006;4.374;2023-02-28T12:51:24;7.20;1.00
17178;DHT22;8704;52.006;4.374;2023-02-28T12:54:00;7.10;1.00
17178;DHT22;8704;52.006;4.374;2023-02-28T12:56:38;7.20;1.00
17178;DHT22;8704;52.006;4.374;2023-02-28T12:59:14;7.60;1.00
17178;DHT22;8704;52.006;4.374;2023-02-28T13:02:02;7.70;1.00
17178;DHT22;8704;52.006;4.374;2023-02-28T13:05:01;7.80;1.00
17178;DHT22;8704;52.006;4.374;2023-02-28T13:07:55;7.90;1.00
17178;DHT22;8704;52.006;4.374;2023-02-28T13:10:39;8.00;1.00
17178;DHT22;8704;52.006;4.374;2023-02-28T13:13:14;8.40;1.00
17178;DHT22;8704;52.006;4.374;2023-02-28T13:16:02;8.60;1.00
17178;DHT22;8704;52.006;4.374;2023-02-28T13:18:33;8.40;1.00
17178;DHT22;8704;52.006;4.374;2023-02-28T13:21:04;8.60;1.00
17178;DHT22;8704;52.006;4.374;2023-02-28T13:23:41;9.00;1.00
17178;DHT22;8704;52.006;4.374;2023-02-28T13:26:32;8.90;1.00
17178;DHT22;8704;52.006;4.374;2023-02-28T13:29:28;8.90;1.00
17178;DHT22;8704;52.006;4.374;2023-02-28T13:32:19;9.90;1.00
17178;DHT22;8704;52.006;4.374;2023-02-28T13:38:16;9.40;1.00
17178;DHT22;8704;52.006;4.374;2023-02-28T13:40:44;9.90;1.00
17178;DHT22;8704;52.006;4.374;2023-02-28T13:43:16;9.90;1.00
17178;DHT22;8704;52.006;4.374;2023-02-28T13:46:11;10.10;1.00
17178;DHT22;8704;52.006;4.374;2023-02-28T13:48:41;10.40;1.00
17178;DHT22;8704;52.006;4.374;2023-02-28T13:51:40;10.50;1.00
17178;DHT22;8704;52.006;4.374;2023-02-28T13:54:27;10.60;1.00
17178;DHT22;8704;52.006;4.374;2023-02-28T13:57:10;10.60;1.00
17178;DHT22;8704;52.006;4.374;2023-02-28T13:59:47;10.50;1.00
17178;DHT22;8704;52.006;4.374;2023-02-28T14:05:18;10.70;1.00
17178;DHT22;8704;52.006;4.374;2023-02-28T14:07:50;10.60;1.00
17178;DHT22;8704;52.006;4.374;2023-02-28T14:10:29;10.90;1.00
17178;DHT22;8704;52.006;4.374;2023-02-28T14:13:11;11.20;1.00
17178;DHT22;8704;52.006;4.374;2023-02-28T14:15:48;11.20;1.00
17178;DHT22;8704;52.006;4.374;2023-02-28T14:18:23;11.60;1.00
17178;DHT22;8704;52.006;4.374;2023-02-28T14:21:01;11.70;1.00
17178;DHT22;8704;52.006;4.374;2023-02-28T14:23:54;12.00;1.00
17178;DHT22;8704;52.006;4.374;2023-02-28T14:26:48;12.30;1.00
17178;DHT22;8704;52.006;4.374;2023-02-28T14:29:50;12.10;1.00
17178;DHT22;8704;52.006;4.374;2023-02-28T14:32:27;11.90;1.00
17178;DHT22;8704;52.006;4.374;2023-02-28T14:35:03;12.20;1.00
17178;DHT22;8704;52.006;4.374;2023-02-28T14:37:37;12.40;1.00
17178;DHT22;8704;52.006;4.374;2023-02-28T14:40:12;12.70;1.00
17178;DHT22;8704;52.006;4.374;2023-02-28T14:42:48;13.00;1.00
17178;DHT22;8704;52.006;4.374;2023-02-28T14:45:22;12.80;1.00
17178;DHT22;8704;52.006;4.374;2023-02-28T14:47:51;12.70;1.00
17178;DHT22;8704;52.006;4.374;2023-02-28T14:50:22;12.60;1.00
17178;DHT22;8704;52.006;4.374;2023-02-28T14:52:52;12.30;1.00
17178;DHT22;8704;52.006;4.374;2023-02-28T14:55:25;12.40;1.00
17178;DHT22;8704;52.006;4.374;2023-02-28T14:57:56;12.20;1.00
17178;DHT22;8704;52.006;4.374;2023-02-28T15:00:26;12.40;1.00
17178;DHT22;8704;52.006;4.374;2023-02-28T15:02:57;12.10;1.00
17178;DHT22;8704;52.006;4.374;2023-02-28T15:05:28;12.30;1.00
17178;DHT22;8704;52.006;4.374;2023-02-28T15:08:06;12.30;1.00
17178;DHT22;8704;52.006;4.374;2023-02-28T15:10:38;12.50;1.00
17178;DHT22;8704;52.006;4.374;2023-02-28T15:13:12;12.20;1.00
17178;DHT22;8704;52.006;4.374;2023-02-28T15:15:49;12.20;1.00
17178;DHT22;8704;52.006;4.374;2023-02-28T15:18:36;12.10;1.00
17178;DHT22;8704;52.006;4.374;2023-02-28T15:21:07;11.80;99.90
17178;DHT22;8704;52.006;4.374;2023-02-28T15:23:36;11.60;99.90
17178;DHT22;8704;52.006;4.374;2023-02-28T15:26:05;11.50;99.90
17178;DHT22;8704;52.006;4.374;2023-02-28T15:28:35;11.20;99.90
17178;DHT22;8704;52.006;4.374;2023-02-28T15:31:21;10.90;99.90
17178;DHT22;8704;52.006;4.374;2023-02-28T15:33:55;10.90;99.90
17178;DHT22;8704;52.006;4.374;2023-02-28T15:36:26;10.70;99.90
17178;DHT22;8704;52.006;4.374;2023-02-28T15:38:57;10.30;99.90
17178;DHT22;8704;52.006;4.374;2023-02-28T15:41:41;10.50;99.90
17178;DHT22;8704;52.006;4.374;2023-02-28T15:44:26;10.40;99.90
17178;DHT22;8704;52.006;4.374;2023-02-28T15:46:59;10.40;99.90
17178;DHT22;8704;52.006;4.374;2023-02-28T15:49:32;10.20;99.90
17178;DHT22;8704;52.006;4.374;2023-02-28T15:52:14;9.90;99.90
17178;DHT22;8704;52.006;4.374;2023-02-28T15:54:45;9.90;99.90
17178;DHT22;8704;52.006;4.374;2023-02-28T15:57:17;10.40;99.90
17178;DHT22;8704;52.006;4.374;2023-02-28T15:59:51;9.60;99.90
17178;DHT22;8704;52.006;4.374;2023-02-28T16:02:21;9.50;99.90
17178;DHT22;8704;52.006;4.374;2023-02-28T16:05:18;9.50;99.90
17178;DHT22;8704;52.006;4.374;2023-02-28T16:07:47;9.30;99.90
17178;DHT22;8704;52.006;4.374;2023-02-28T16:10:15;9.20;99.90
17178;DHT22;8704;52.006;4.374;2023-02-28T16:12:43;9.20;99.90
17178;DHT22;8704;52.006;4.374;2023-02-28T16:15:19;9.40;99.90
17178;DHT22;8704;52.006;4.374;2023-02-28T16:17:48;9.00;99.90
17178;DHT22;8704;52.006;4.374;2023-02-28T16:20:20;8.80;99.90
17178;DHT22;8704;52.006;4.374;2023-02-28T16:22:48;8.70;99.90
17178;DHT22;8704;52.006;4.374;2023-02-28T16:25:18;8.60;99.90
17178;DHT22;8704;52.006;4.374;2023-02-28T16:27:48;8.60;99.90
17178;DHT22;8704;52.006;4.374;2023-02-28T16:30:20;8.40;99.90
17178;DHT22;8704;52.006;4.374;2023-02-28T16:32:49;8.20;99.90
17178;DHT22;8704;52.006;4.374;2023-02-28T16:35:18;8.10;99.90
17178;DHT22;8704;52.006;4.374;2023-02-28T16:37:46;8.10;99.90
17178;DHT22;8704;52.006;4.374;2023-02-28T16:40:16;8.00;99.90
17178;DHT22;8704;52.006;4.374;2023-02-28T16:42:45;7.80;99.90
17178;DHT22;8704;52.006;4.374;2023-02-28T16:45:20;7.70;99.90
17178;DHT22;8704;52.006;4.374;2023-02-28T16:47:49;7.70;99.90
17178;DHT22;8704;52.006;4.374;2023-02-28T16:50:19;7.80;99.90
17178;DHT22;8704;52.006;4.374;2023-02-28T16:52:48;7.60;99.90
17178;DHT22;8704;52.006;4.374;2023-02-28T16:55:19;7.50;99.90
17178;DHT22;8704;52.006;4.374;2023-02-28T16:57:50;7.30;99.90
17178;DHT22;8704;52.006;4.374;2023-02-28T17:00:21;7.40;99.90